createdAt,value
2023-05-19T00:00:58.408Z,1027.37
2023-05-19T00:02:02.758Z,1027.35
2023-05-19T00:03:21.082Z,1027.36
2023-05-19T00:04:24.268Z,1027.30
2023-05-19T00:05:28.445Z,1027.31
2023-05-19T00:06:32.698Z,1027.31
2023-05-19T00:07:36.886Z,1027.31
2023-05-19T00:08:41.121Z,1027.32
2023-05-19T00:09:45.435Z,1027.31
2023-05-19T00:10:49.641Z,1027.34
2023-05-19T00:11:53.980Z,1027.34
2023-05-19T00:12:58.178Z,1027.36
2023-05-19T00:14:02.423Z,1027.35
2023-05-19T00:15:06.755Z,1027.35
2023-05-19T00:16:11.094Z,1027.36
2023-05-19T00:17:15.243Z,1027.37
2023-05-19T00:18:19.508Z,1027.39
2023-05-19T00:19:23.930Z,1027.39
2023-05-19T00:20:28.045Z,1027.39
2023-05-19T00:21:32.309Z,1027.37
2023-05-19T00:22:36.642Z,1027.35
2023-05-19T00:23:40.875Z,1027.34
2023-05-19T00:24:51.147Z,1027.30
2023-05-19T00:26:07.972Z,1027.29
2023-05-19T00:27:11.168Z,1027.27
2023-05-19T00:28:15.442Z,1027.28
2023-05-19T00:29:19.619Z,1027.26
2023-05-19T00:30:23.884Z,1027.27
2023-05-19T00:31:28.237Z,1027.27
2023-05-19T00:32:32.447Z,1027.28
2023-05-19T00:33:36.765Z,1027.29
2023-05-19T00:34:40.981Z,1027.28
2023-05-19T00:35:45.322Z,1027.28
2023-05-19T00:36:49.545Z,1027.27
2023-05-19T00:37:53.810Z,1027.28
2023-05-19T00:38:58.041Z,1027.29
2023-05-19T00:40:02.308Z,1027.28
2023-05-19T00:41:06.550Z,1027.28
2023-05-19T00:42:10.778Z,1027.30
2023-05-19T00:43:15.031Z,1027.33
2023-05-19T00:44:19.396Z,1027.33
2023-05-19T00:45:23.647Z,1027.31
2023-05-19T00:46:27.890Z,1027.32
2023-05-19T00:47:32.186Z,1027.32
2023-05-19T00:48:36.405Z,1027.31
2023-05-19T00:49:40.676Z,1027.32
2023-05-19T00:50:45.037Z,1027.30
2023-05-19T00:51:49.308Z,1027.30
2023-05-19T00:52:53.567Z,1027.33
2023-05-19T00:53:57.786Z,1027.37
2023-05-19T00:55:02.108Z,1027.37
2023-05-19T00:56:06.310Z,1027.37
2023-05-19T00:57:10.548Z,1027.36
2023-05-19T00:58:14.768Z,1027.37
2023-05-19T00:59:19.047Z,1027.37
2023-05-19T01:00:23.285Z,1027.38
2023-05-19T01:01:27.675Z,1027.39
2023-05-19T01:02:31.845Z,1027.37
2023-05-19T01:03:36.125Z,1027.38
2023-05-19T01:04:40.316Z,1027.37
2023-05-19T01:05:44.540Z,1027.36
2023-05-19T01:06:48.882Z,1027.36
2023-05-19T01:07:53.054Z,1027.35
2023-05-19T01:08:57.286Z,1027.33
2023-05-19T01:10:01.544Z,1027.32
2023-05-19T01:11:05.789Z,1027.31
2023-05-19T01:12:10.130Z,1027.32
2023-05-19T01:13:14.316Z,1027.32
2023-05-19T01:14:18.616Z,1027.30
2023-05-19T01:15:22.812Z,1027.30
2023-05-19T01:16:27.176Z,1027.29
2023-05-19T01:17:31.506Z,1027.27
2023-05-19T01:18:35.757Z,1027.26
2023-05-19T01:19:39.953Z,1027.23
2023-05-19T01:20:44.170Z,1027.25
2023-05-19T01:21:48.370Z,1027.26
2023-05-19T01:22:52.604Z,1027.25
2023-05-19T01:23:56.870Z,1027.26
2023-05-19T01:25:01.121Z,1027.27
2023-05-19T01:26:05.306Z,1027.29
2023-05-19T01:27:09.542Z,1027.29
2023-05-19T01:28:13.770Z,1027.29
2023-05-19T01:29:18.002Z,1027.29
2023-05-19T01:30:22.301Z,1027.29
2023-05-19T01:31:26.620Z,1027.28
2023-05-19T01:32:30.850Z,1027.28
2023-05-19T01:33:34.985Z,1027.27
2023-05-19T01:34:39.304Z,1027.29
2023-05-19T01:35:43.665Z,1027.28
2023-05-19T01:36:47.961Z,1027.29
2023-05-19T01:37:52.152Z,1027.29
2023-05-19T01:38:56.447Z,1027.30
2023-05-19T01:40:00.654Z,1027.31
2023-05-19T01:41:04.941Z,1027.31
2023-05-19T01:42:09.135Z,1027.31
2023-05-19T01:43:13.513Z,1027.29
2023-05-19T01:44:17.622Z,1027.30
2023-05-19T01:45:21.969Z,1027.29
2023-05-19T01:46:26.248Z,1027.30
2023-05-19T01:47:33.431Z,1027.31
2023-05-19T01:48:36.725Z,1027.31
2023-05-19T01:49:40.953Z,1027.31
2023-05-19T01:50:45.257Z,1027.31
2023-05-19T01:51:49.412Z,1027.33
2023-05-19T01:52:53.744Z,1027.34
2023-05-19T01:53:58.019Z,1027.31
2023-05-19T01:55:02.245Z,1027.29
2023-05-19T01:56:06.472Z,1027.29
2023-05-19T01:57:10.721Z,1027.30
2023-05-19T01:58:14.954Z,1027.31
2023-05-19T01:59:19.177Z,1027.34
2023-05-19T02:00:23.392Z,1027.31
2023-05-19T02:01:27.759Z,1027.31
2023-05-19T02:02:31.973Z,1027.31
2023-05-19T02:03:36.245Z,1027.32
2023-05-19T02:04:40.553Z,1027.34
2023-05-19T02:05:44.754Z,1027.38
2023-05-19T02:06:48.982Z,1027.36
2023-05-19T02:07:53.239Z,1027.35
2023-05-19T02:08:57.475Z,1027.34
2023-05-19T02:10:01.825Z,1027.34
2023-05-19T02:11:06.155Z,1027.31
2023-05-19T02:12:10.364Z,1027.31
2023-05-19T02:13:14.624Z,1027.33
2023-05-19T02:14:18.774Z,1027.30
2023-05-19T02:15:23.056Z,1027.29
2023-05-19T02:16:27.506Z,1027.27
2023-05-19T02:17:31.624Z,1027.28
2023-05-19T02:18:35.825Z,1027.29
2023-05-19T02:19:40.123Z,1027.28
2023-05-19T02:20:44.319Z,1027.29
2023-05-19T02:21:48.631Z,1027.31
2023-05-19T02:22:52.802Z,1027.31
2023-05-19T02:23:57.051Z,1027.32
2023-05-19T02:25:01.290Z,1027.33
2023-05-19T02:26:05.530Z,1027.32
2023-05-19T02:27:09.881Z,1027.33
2023-05-19T02:28:14.034Z,1027.34
2023-05-19T02:29:18.270Z,1027.33
2023-05-19T02:30:22.562Z,1027.32
2023-05-19T02:31:26.874Z,1027.33
2023-05-19T02:32:31.062Z,1027.36
2023-05-19T02:33:35.225Z,1027.35
2023-05-19T02:34:39.560Z,1027.36
2023-05-19T02:35:43.707Z,1027.35
2023-05-19T02:36:48.069Z,1027.36
2023-05-19T02:37:52.236Z,1027.36
2023-05-19T02:38:56.449Z,1027.38
2023-05-19T02:40:00.702Z,1027.37
2023-05-19T02:41:04.868Z,1027.38
2023-05-19T02:42:09.038Z,1027.37
2023-05-19T02:43:13.360Z,1027.35
2023-05-19T02:44:17.498Z,1027.35
2023-05-19T02:45:21.761Z,1027.33
2023-05-19T02:46:25.995Z,1027.36
2023-05-19T02:47:30.283Z,1027.37
2023-05-19T02:48:34.403Z,1027.36
2023-05-19T02:49:38.664Z,1027.37
2023-05-19T02:50:42.971Z,1027.39
2023-05-19T02:51:47.131Z,1027.38
2023-05-19T02:52:51.458Z,1027.38
2023-05-19T02:53:55.668Z,1027.38
2023-05-19T02:55:05.951Z,1027.39
2023-05-19T02:56:08.863Z,1027.39
2023-05-19T02:57:13.006Z,1027.40
2023-05-19T02:58:17.260Z,1027.41
2023-05-19T02:59:21.939Z,1027.42
2023-05-19T03:00:25.676Z,1027.41
2023-05-19T03:01:29.932Z,1027.40
2023-05-19T03:02:34.148Z,1027.40
2023-05-19T03:03:38.465Z,1027.39
2023-05-19T03:04:42.636Z,1027.39
2023-05-19T03:05:46.844Z,1027.41
2023-05-19T03:06:51.103Z,1027.40
2023-05-19T03:07:55.339Z,1027.39
2023-05-19T03:08:59.463Z,1027.39
2023-05-19T03:10:03.862Z,1027.39
2023-05-19T03:11:08.135Z,1027.39
2023-05-19T03:12:12.256Z,1027.38
2023-05-19T03:13:16.502Z,1027.37
2023-05-19T03:14:20.889Z,1027.37
2023-05-19T03:15:24.986Z,1027.37
2023-05-19T03:16:29.289Z,1027.35
2023-05-19T03:17:33.724Z,1027.35
2023-05-19T03:18:37.922Z,1027.35
2023-05-19T03:19:42.087Z,1027.36
2023-05-19T03:20:46.282Z,1027.38
2023-05-19T03:21:50.415Z,1027.38
2023-05-19T03:22:54.712Z,1027.39
2023-05-19T03:23:58.940Z,1027.39
2023-05-19T03:25:03.180Z,1027.37
2023-05-19T03:26:07.403Z,1027.37
2023-05-19T03:27:11.679Z,1027.35
2023-05-19T03:28:15.870Z,1027.38
2023-05-19T03:29:20.100Z,1027.37
2023-05-19T03:30:24.331Z,1027.37
2023-05-19T03:31:28.534Z,1027.38
2023-05-19T03:32:32.876Z,1027.38
2023-05-19T03:33:37.019Z,1027.37
2023-05-19T03:34:41.206Z,1027.38
2023-05-19T03:35:45.451Z,1027.38
2023-05-19T03:36:49.602Z,1027.38
2023-05-19T03:37:53.889Z,1027.38
2023-05-19T03:38:58.083Z,1027.40
2023-05-19T03:40:02.391Z,1027.42
2023-05-19T03:41:06.581Z,1027.44
2023-05-19T03:42:10.897Z,1027.44
2023-05-19T03:43:15.190Z,1027.47
2023-05-19T03:44:19.352Z,1027.48
2023-05-19T03:45:23.599Z,1027.47
2023-05-19T03:46:28.001Z,1027.48
2023-05-19T03:47:32.056Z,1027.47
2023-05-19T03:48:36.297Z,1027.47
2023-05-19T03:49:40.529Z,1027.48
2023-05-19T03:50:44.772Z,1027.45
2023-05-19T03:51:49.019Z,1027.45
2023-05-19T03:52:53.130Z,1027.44
2023-05-19T03:53:57.429Z,1027.43
2023-05-19T03:55:01.676Z,1027.41
2023-05-19T03:56:05.966Z,1027.42
2023-05-19T03:57:10.160Z,1027.43
2023-05-19T03:58:14.534Z,1027.40
2023-05-19T03:59:18.678Z,1027.44
2023-05-19T04:00:23.010Z,1027.42
2023-05-19T04:01:27.201Z,1027.40
2023-05-19T04:02:31.717Z,1027.41
2023-05-19T04:03:35.864Z,1027.41
2023-05-19T04:04:40.065Z,1027.40
2023-05-19T04:05:44.261Z,1027.42
2023-05-19T04:06:48.502Z,1027.41
2023-05-19T04:07:52.833Z,1027.40
2023-05-19T04:08:57.114Z,1027.39
2023-05-19T04:10:01.377Z,1027.41
2023-05-19T04:11:05.613Z,1027.41
2023-05-19T04:12:09.838Z,1027.39
2023-05-19T04:13:14.253Z,1027.38
2023-05-19T04:14:18.428Z,1027.40
2023-05-19T04:15:22.642Z,1027.41
2023-05-19T04:16:26.946Z,1027.39
2023-05-19T04:17:31.235Z,1027.37
2023-05-19T04:18:35.531Z,1027.37
2023-05-19T04:19:39.686Z,1027.38
2023-05-19T04:20:43.940Z,1027.37
2023-05-19T04:21:48.179Z,1027.36
2023-05-19T04:22:53.320Z,1027.35
2023-05-19T04:23:57.219Z,1027.35
2023-05-19T04:25:01.517Z,1027.36
2023-05-19T04:26:05.740Z,1027.35
2023-05-19T04:27:10.012Z,1027.34
2023-05-19T04:28:14.181Z,1027.35
2023-05-19T04:29:18.764Z,1027.38
2023-05-19T04:30:22.893Z,1027.38
2023-05-19T04:31:27.098Z,1027.38
2023-05-19T04:32:31.340Z,1027.38
2023-05-19T04:33:35.647Z,1027.36
2023-05-19T04:34:40.012Z,1027.41
2023-05-19T04:35:44.204Z,1027.40
2023-05-19T04:36:49.203Z,1027.40
2023-05-19T04:37:52.705Z,1027.41
2023-05-19T04:38:57.067Z,1027.42
2023-05-19T04:40:01.309Z,1027.41
2023-05-19T04:41:05.523Z,1027.40
2023-05-19T04:42:09.837Z,1027.39
2023-05-19T04:43:14.140Z,1027.39
2023-05-19T04:44:18.584Z,1027.39
2023-05-19T04:45:22.625Z,1027.39
2023-05-19T04:46:26.928Z,1027.38
2023-05-19T04:47:31.129Z,1027.38
2023-05-19T04:48:35.349Z,1027.41
2023-05-19T04:49:39.683Z,1027.41
2023-05-19T04:50:43.883Z,1027.41
2023-05-19T04:51:48.121Z,1027.41
2023-05-19T04:52:52.263Z,1027.43
2023-05-19T04:53:56.556Z,1027.41
2023-05-19T04:55:00.875Z,1027.41
2023-05-19T04:56:05.072Z,1027.43
2023-05-19T04:57:09.370Z,1027.41
2023-05-19T04:58:13.597Z,1027.42
2023-05-19T04:59:17.925Z,1027.38
2023-05-19T05:00:22.191Z,1027.38
2023-05-19T05:01:26.635Z,1027.37
2023-05-19T05:02:30.642Z,1027.35
2023-05-19T05:03:35.111Z,1027.37
2023-05-19T05:04:39.101Z,1027.38
2023-05-19T05:05:43.262Z,1027.40
2023-05-19T05:06:47.602Z,1027.41
2023-05-19T05:07:51.859Z,1027.42
2023-05-19T05:08:56.095Z,1027.43
2023-05-19T05:10:00.337Z,1027.42
2023-05-19T05:11:04.594Z,1027.40
2023-05-19T05:12:08.871Z,1027.42
2023-05-19T05:13:13.105Z,1027.41
2023-05-19T05:14:17.323Z,1027.42
2023-05-19T05:15:21.689Z,1027.43
2023-05-19T05:16:26.008Z,1027.44
2023-05-19T05:17:30.234Z,1027.43
2023-05-19T05:18:34.511Z,1027.44
2023-05-19T05:19:38.836Z,1027.45
2023-05-19T05:20:43.073Z,1027.46
2023-05-19T05:21:47.213Z,1027.46
2023-05-19T05:22:51.547Z,1027.46
2023-05-19T05:23:55.737Z,1027.47
2023-05-19T05:25:00.022Z,1027.47
2023-05-19T05:26:04.298Z,1027.45
2023-05-19T05:27:08.490Z,1027.46
2023-05-19T05:28:12.771Z,1027.45
2023-05-19T05:29:17.005Z,1027.43
2023-05-19T05:30:21.373Z,1027.42
2023-05-19T05:31:25.592Z,1027.40
2023-05-19T05:32:29.973Z,1027.41
2023-05-19T05:33:34.166Z,1027.41
2023-05-19T05:34:38.397Z,1027.43
2023-05-19T05:35:42.652Z,1027.42
2023-05-19T05:36:46.912Z,1027.41
2023-05-19T05:37:52.120Z,1027.41
2023-05-19T05:38:56.020Z,1027.41
2023-05-19T05:40:00.320Z,1027.42
2023-05-19T05:41:04.550Z,1027.42
2023-05-19T05:42:08.872Z,1027.41
2023-05-19T05:43:13.170Z,1027.41
2023-05-19T05:44:17.366Z,1027.41
2023-05-19T05:45:27.660Z,1027.37
2023-05-19T05:46:30.572Z,1027.39
2023-05-19T05:47:34.823Z,1027.37
2023-05-19T05:48:38.963Z,1027.39
2023-05-19T05:49:43.350Z,1027.37
2023-05-19T05:50:47.639Z,1027.36
2023-05-19T05:52:04.820Z,1027.36
2023-05-19T05:52:56.230Z,1027.33
2023-05-19T05:54:00.539Z,1027.32
2023-05-19T05:55:04.819Z,1027.31
2023-05-19T05:56:12.076Z,1027.29
2023-05-19T05:57:15.639Z,1027.29
2023-05-19T05:58:19.906Z,1027.33
2023-05-19T05:59:24.083Z,1027.31
2023-05-19T06:00:28.437Z,1027.32
2023-05-19T06:01:35.437Z,1027.31
2023-05-19T06:02:37.182Z,1027.33
2023-05-19T06:03:41.331Z,1027.32
2023-05-19T06:04:45.687Z,1027.34
2023-05-19T06:05:50.005Z,1027.32
2023-05-19T06:06:54.301Z,1027.32
2023-05-19T06:07:58.603Z,1027.31
2023-05-19T06:09:02.884Z,1027.32
2023-05-19T06:10:07.255Z,1027.33
2023-05-19T06:11:11.476Z,1027.31
2023-05-19T06:12:15.794Z,1027.30
2023-05-19T06:13:20.071Z,1027.30
2023-05-19T06:14:24.402Z,1027.26
2023-05-19T06:15:28.757Z,1027.26
2023-05-19T06:16:33.183Z,1027.28
2023-05-19T06:17:37.460Z,1027.27
2023-05-19T06:18:41.775Z,1027.26
2023-05-19T06:19:46.127Z,1027.24
2023-05-19T06:20:50.487Z,1027.19
2023-05-19T06:21:54.826Z,1027.20
2023-05-19T06:22:59.150Z,1027.20
2023-05-19T06:24:03.316Z,1027.20
2023-05-19T06:25:07.684Z,1027.18
2023-05-19T06:26:12.112Z,1027.17
2023-05-19T06:27:16.388Z,1027.14
2023-05-19T06:28:20.750Z,1027.14
2023-05-19T06:29:25.120Z,1027.14
2023-05-19T06:30:29.482Z,1027.14
2023-05-19T06:31:33.875Z,1027.12
2023-05-19T06:32:38.105Z,1027.11
2023-05-19T06:33:42.492Z,1027.10
2023-05-19T06:34:46.835Z,1027.09
2023-05-19T06:35:51.169Z,1027.10
2023-05-19T06:36:55.502Z,1027.09
2023-05-19T06:37:59.842Z,1027.04
2023-05-19T06:39:04.145Z,1027.07
2023-05-19T06:40:08.525Z,1027.05
2023-05-19T06:41:12.849Z,1027.05
2023-05-19T06:42:17.260Z,1027.05
2023-05-19T06:43:21.567Z,1027.04
2023-05-19T06:44:25.952Z,1027.03
2023-05-19T06:45:30.305Z,1027.04
2023-05-19T06:46:34.721Z,1027.04
2023-05-19T06:47:39.019Z,1027.03
2023-05-19T06:48:43.420Z,1027.00
2023-05-19T06:49:47.784Z,1027.01
2023-05-19T06:50:52.132Z,1026.98
2023-05-19T06:51:56.527Z,1026.99
2023-05-19T06:53:00.864Z,1026.98
2023-05-19T06:54:05.251Z,1026.96
2023-05-19T06:55:09.559Z,1026.97
2023-05-19T06:56:13.923Z,1026.95
2023-05-19T06:57:18.337Z,1026.93
2023-05-19T06:58:22.728Z,1026.91
2023-05-19T06:59:27.005Z,1026.88
2023-05-19T07:00:31.448Z,1026.86
2023-05-19T07:01:35.667Z,1026.86
2023-05-19T07:02:40.085Z,1026.86
2023-05-19T07:03:44.470Z,1026.83
2023-05-19T07:04:48.760Z,1026.81
2023-05-19T07:05:53.112Z,1026.85
2023-05-19T07:06:58.569Z,1026.84
2023-05-19T07:08:02.549Z,1026.85
2023-05-19T07:09:06.840Z,1026.88
2023-05-19T07:10:11.200Z,1026.85
2023-05-19T07:11:15.591Z,1026.85
2023-05-19T07:12:19.995Z,1026.85
2023-05-19T07:13:26.617Z,1026.88
2023-05-19T07:14:28.594Z,1026.89
2023-05-19T07:15:32.896Z,1026.91
2023-05-19T07:16:37.335Z,1026.93
2023-05-19T07:17:41.596Z,1026.92
2023-05-19T07:18:46.038Z,1026.92
2023-05-19T07:19:50.384Z,1026.92
2023-05-19T07:20:54.800Z,1026.91
2023-05-19T07:21:59.195Z,1026.91
2023-05-19T07:23:03.542Z,1026.91
2023-05-19T07:24:10.833Z,1026.89
2023-05-19T07:25:14.351Z,1026.90
2023-05-19T07:26:18.717Z,1026.87
2023-05-19T07:27:22.996Z,1026.85
2023-05-19T07:28:27.375Z,1026.88
2023-05-19T07:29:31.631Z,1026.86
2023-05-19T07:30:36.070Z,1026.85
2023-05-19T07:31:40.385Z,1026.83
2023-05-19T07:32:44.895Z,1026.87
2023-05-19T07:33:49.254Z,1026.88
2023-05-19T07:34:53.509Z,1026.87
2023-05-19T07:35:57.900Z,1026.85
2023-05-19T07:37:02.226Z,1026.86
2023-05-19T07:38:06.613Z,1026.84
2023-05-19T07:39:11.273Z,1026.83
2023-05-19T07:40:15.390Z,1026.86
2023-05-19T07:41:19.864Z,1026.83
2023-05-19T07:42:24.209Z,1026.82
2023-05-19T07:43:28.566Z,1026.79
2023-05-19T07:44:33.102Z,1026.77
2023-05-19T07:45:37.437Z,1026.81
2023-05-19T07:46:41.912Z,1026.81
2023-05-19T07:47:46.183Z,1026.79
2023-05-19T07:48:50.637Z,1026.74
2023-05-19T07:50:01.041Z,1026.77
2023-05-19T07:51:04.021Z,1026.80
2023-05-19T07:52:08.484Z,1026.77
2023-05-19T07:53:12.797Z,1026.74
2023-05-19T07:54:17.234Z,1026.73
2023-05-19T07:55:21.503Z,1026.76
2023-05-19T07:56:25.931Z,1026.75
2023-05-19T07:57:30.403Z,1026.74
2023-05-19T07:58:34.737Z,1026.74
2023-05-19T07:59:39.212Z,1026.77
2023-05-19T08:00:43.601Z,1026.75
2023-05-19T08:01:48.011Z,1026.77
2023-05-19T08:02:52.538Z,1026.77
2023-05-19T08:03:56.897Z,1026.73
2023-05-19T08:05:01.203Z,1026.73
2023-05-19T08:06:05.663Z,1026.72
2023-05-19T08:07:10.004Z,1026.70
2023-05-19T08:08:17.383Z,1026.67
2023-05-19T08:09:20.948Z,1026.65
2023-05-19T08:10:25.255Z,1026.65
2023-05-19T08:11:29.647Z,1026.67
2023-05-19T08:12:34.072Z,1026.63
2023-05-19T08:13:38.471Z,1026.65
2023-05-19T08:14:42.872Z,1026.64
2023-05-19T08:15:47.158Z,1026.65
2023-05-19T08:16:51.664Z,1026.63
2023-05-19T08:17:58.948Z,1026.63
2023-05-19T08:19:02.586Z,1026.64
2023-05-19T08:20:06.743Z,1026.61
2023-05-19T08:21:11.187Z,1026.58
2023-05-19T08:22:15.530Z,1026.61
2023-05-19T08:23:19.842Z,1026.57
2023-05-19T08:24:38.349Z,1026.57
2023-05-19T08:25:41.448Z,1026.58
2023-05-19T08:26:45.759Z,1026.56
2023-05-19T08:27:50.206Z,1026.55
2023-05-19T08:28:54.609Z,1026.57
2023-05-19T08:29:59.056Z,1026.57
2023-05-19T08:31:03.367Z,1026.58
2023-05-19T08:32:07.677Z,1026.57
2023-05-19T08:33:12.157Z,1026.55
2023-05-19T08:34:16.443Z,1026.55
2023-05-19T08:35:23.874Z,1026.51
2023-05-19T08:36:27.388Z,1026.51
2023-05-19T08:37:34.023Z,1026.52
2023-05-19T08:38:36.209Z,1026.47
2023-05-19T08:39:40.552Z,1026.48
2023-05-19T08:40:44.940Z,1026.48
2023-05-19T08:41:49.300Z,1026.49
2023-05-19T08:42:53.677Z,1026.51
2023-05-19T08:43:57.975Z,1026.50
2023-05-19T08:45:02.500Z,1026.50
2023-05-19T08:46:06.848Z,1026.53
2023-05-19T08:47:11.212Z,1026.51
2023-05-19T08:48:15.619Z,1026.49
2023-05-19T08:49:19.892Z,1026.51
2023-05-19T08:50:24.366Z,1026.46
2023-05-19T08:51:28.742Z,1026.46
2023-05-19T08:52:33.142Z,1026.49
2023-05-19T08:53:37.561Z,1026.44
2023-05-19T08:54:41.845Z,1026.40
2023-05-19T08:55:46.356Z,1026.36
2023-05-19T08:56:50.637Z,1026.36
2023-05-19T08:57:55.210Z,1026.37
2023-05-19T08:58:59.466Z,1026.37
2023-05-19T09:00:03.914Z,1026.33
2023-05-19T09:01:08.386Z,1026.30
2023-05-19T09:02:12.628Z,1026.27
2023-05-19T09:03:23.284Z,1026.28
2023-05-19T09:04:21.550Z,1026.26
2023-05-19T09:05:25.815Z,1026.24
2023-05-19T09:06:30.246Z,1026.28
2023-05-19T09:07:34.656Z,1026.21
2023-05-19T09:08:39.274Z,1026.22
2023-05-19T09:09:43.568Z,1026.23
2023-05-19T09:10:47.982Z,1026.18
2023-05-19T09:11:52.305Z,1026.16
2023-05-19T09:12:56.693Z,1026.16
2023-05-19T09:14:01.109Z,1026.20
2023-05-19T09:15:05.521Z,1026.24
2023-05-19T09:16:10.031Z,1026.24
2023-05-19T09:17:14.444Z,1026.25
2023-05-19T09:18:18.728Z,1026.26
2023-05-19T09:19:23.216Z,1026.22
2023-05-19T09:20:27.386Z,1026.23
2023-05-19T09:21:31.898Z,1026.23
2023-05-19T09:22:36.192Z,1026.21
2023-05-19T09:23:40.614Z,1026.20
2023-05-19T09:24:45.015Z,1026.19
2023-05-19T09:25:49.416Z,1026.19
2023-05-19T09:26:53.749Z,1026.18
2023-05-19T09:27:58.084Z,1026.18
2023-05-19T09:29:02.521Z,1026.17
2023-05-19T09:30:06.830Z,1026.19
2023-05-19T09:31:11.289Z,1026.23
2023-05-19T09:32:15.732Z,1026.22
2023-05-19T09:33:20.057Z,1026.21
2023-05-19T09:34:24.373Z,1026.17
2023-05-19T09:35:28.703Z,1026.15
2023-05-19T09:36:33.101Z,1026.19
2023-05-19T09:37:37.528Z,1026.17
2023-05-19T09:38:44.897Z,1026.14
2023-05-19T09:39:48.408Z,1026.11
2023-05-19T09:40:52.711Z,1026.09
2023-05-19T09:41:57.128Z,1026.14
2023-05-19T09:43:01.540Z,1026.15
2023-05-19T09:44:05.853Z,1026.13
2023-05-19T09:45:24.384Z,1026.10
2023-05-19T09:46:27.732Z,1026.09
2023-05-19T09:47:31.889Z,1026.06
2023-05-19T09:48:36.253Z,1026.06
2023-05-19T09:49:40.533Z,1026.07
2023-05-19T09:50:44.882Z,1026.03
2023-05-19T09:51:49.321Z,1026.02
2023-05-19T09:52:53.634Z,1026.05
2023-05-19T09:54:12.052Z,1025.97
2023-05-19T09:55:15.417Z,1025.96
2023-05-19T09:56:19.747Z,1025.93
2023-05-19T09:57:24.194Z,1025.91
2023-05-19T09:58:28.504Z,1025.90
2023-05-19T09:59:34.106Z,1025.89
2023-05-19T10:00:37.343Z,1025.90
2023-05-19T10:01:41.719Z,1025.87
2023-05-19T10:02:46.027Z,1025.81
2023-05-19T10:03:50.374Z,1025.81
2023-05-19T10:04:54.786Z,1025.77
2023-05-19T10:05:59.117Z,1025.83
2023-05-19T10:07:03.480Z,1025.78
2023-05-19T10:08:07.865Z,1025.76
2023-05-19T10:09:12.200Z,1025.74
2023-05-19T10:10:16.745Z,1025.77
2023-05-19T10:11:21.010Z,1025.75
2023-05-19T10:12:25.459Z,1025.72
2023-05-19T10:13:29.804Z,1025.77
2023-05-19T10:14:34.165Z,1025.77
2023-05-19T10:15:49.918Z,1025.76
2023-05-19T10:16:43.049Z,1025.75
2023-05-19T10:17:47.457Z,1025.73
2023-05-19T10:18:51.803Z,1025.70
2023-05-19T10:19:56.200Z,1025.66
2023-05-19T10:21:00.587Z,1025.65
2023-05-19T10:22:04.895Z,1025.68
2023-05-19T10:23:09.447Z,1025.65
2023-05-19T10:24:13.845Z,1025.70
2023-05-19T10:25:18.155Z,1025.62
2023-05-19T10:26:22.549Z,1025.61
2023-05-19T10:27:26.945Z,1025.60
2023-05-19T10:28:31.407Z,1025.54
2023-05-19T10:29:35.729Z,1025.55
2023-05-19T10:30:40.130Z,1025.56
2023-05-19T10:31:44.484Z,1025.53
2023-05-19T10:32:48.863Z,1025.57
2023-05-19T10:33:53.302Z,1025.50
2023-05-19T10:34:57.724Z,1025.53
2023-05-19T10:36:02.279Z,1025.50
2023-05-19T10:37:06.653Z,1025.48
2023-05-19T10:38:11.130Z,1025.44
2023-05-19T10:39:15.399Z,1025.41
2023-05-19T10:40:19.891Z,1025.41
2023-05-19T10:41:24.282Z,1025.49
2023-05-19T10:42:28.594Z,1025.41
2023-05-19T10:43:33.050Z,1025.42
2023-05-19T10:44:37.369Z,1025.40
2023-05-19T10:45:41.763Z,1025.40
2023-05-19T10:46:46.207Z,1025.35
2023-05-19T10:47:50.507Z,1025.36
2023-05-19T10:48:54.950Z,1025.31
2023-05-19T10:49:59.408Z,1025.30
2023-05-19T10:51:03.930Z,1025.29
2023-05-19T10:52:08.198Z,1025.33
2023-05-19T10:53:12.538Z,1025.21
2023-05-19T10:54:17.017Z,1025.25
2023-05-19T10:55:21.433Z,1025.26
2023-05-19T10:56:25.716Z,1025.30
2023-05-19T10:57:30.147Z,1025.31
2023-05-19T10:58:34.613Z,1025.29
2023-05-19T10:59:39.019Z,1025.32
2023-05-19T11:00:43.418Z,1025.35
2023-05-19T11:01:47.888Z,1025.25
2023-05-19T11:02:52.340Z,1025.26
2023-05-19T11:03:56.606Z,1025.28
2023-05-19T11:05:01.094Z,1025.28
2023-05-19T11:06:08.504Z,1025.28
2023-05-19T11:07:12.120Z,1025.29
2023-05-19T11:08:16.446Z,1025.31
2023-05-19T11:09:31.159Z,1025.32
2023-05-19T11:10:25.299Z,1025.31
2023-05-19T11:11:29.558Z,1025.21
2023-05-19T11:12:33.914Z,1025.12
2023-05-19T11:13:38.358Z,1025.06
2023-05-19T11:14:42.799Z,1025.02
2023-05-19T11:15:47.132Z,1025.00
2023-05-19T11:16:51.703Z,1025.05
2023-05-19T11:17:56.058Z,1025.07
2023-05-19T11:19:06.426Z,1025.05
2023-05-19T11:20:09.301Z,1025.00
2023-05-19T11:21:13.848Z,1024.95
2023-05-19T11:22:18.093Z,1024.96
2023-05-19T11:23:22.645Z,1024.99
2023-05-19T11:24:40.911Z,1025.00
2023-05-19T11:25:44.330Z,1025.00
2023-05-19T11:26:48.686Z,1025.01
2023-05-19T11:27:52.975Z,1025.02
2023-05-19T11:28:57.441Z,1024.98
2023-05-19T11:30:02.213Z,1024.99
2023-05-19T11:31:06.374Z,1024.97
2023-05-19T11:32:10.917Z,1024.97
2023-05-19T11:33:21.209Z,1024.95
2023-05-19T11:34:24.196Z,1024.90
2023-05-19T11:35:28.550Z,1024.86
2023-05-19T11:36:32.915Z,1024.95
2023-05-19T11:37:37.291Z,1024.90
2023-05-19T11:38:41.672Z,1024.90
2023-05-19T11:39:46.032Z,1024.90
2023-05-19T11:40:50.415Z,1024.93
2023-05-19T11:42:08.798Z,1024.89
2023-05-19T11:43:12.429Z,1024.91
2023-05-19T11:44:16.666Z,1024.91
2023-05-19T11:45:21.017Z,1024.94
2023-05-19T11:46:25.757Z,1024.93
2023-05-19T11:48:00.068Z,1024.94
2023-05-19T11:48:47.329Z,1024.86
2023-05-19T11:49:51.620Z,1024.79
2023-05-19T11:50:55.997Z,1024.77
2023-05-19T11:52:01.518Z,1024.76
2023-05-19T11:53:11.545Z,1024.69
2023-05-19T11:54:14.753Z,1024.73
2023-05-19T11:55:19.096Z,1024.71
2023-05-19T11:56:23.608Z,1024.65
2023-05-19T11:57:47.052Z,1024.64
2023-05-19T11:58:48.193Z,1024.65
2023-05-19T11:59:51.696Z,1024.67
2023-05-19T12:00:56.044Z,1024.75
2023-05-19T12:02:00.521Z,1024.73
2023-05-19T12:03:04.966Z,1024.71
2023-05-19T12:04:09.211Z,1024.71
2023-05-19T12:05:13.723Z,1024.73
2023-05-19T12:06:18.057Z,1024.73
2023-05-19T12:07:22.502Z,1024.74
2023-05-19T12:08:26.826Z,1024.72
2023-05-19T12:09:31.206Z,1024.80
2023-05-19T12:10:35.661Z,1024.74
2023-05-19T12:11:40.108Z,1024.73
2023-05-19T12:12:44.457Z,1024.67
2023-05-19T12:13:48.952Z,1024.64
2023-05-19T12:14:53.596Z,1024.66
2023-05-19T12:17:25.182Z,1024.66
2023-05-19T12:18:29.464Z,1024.60
2023-05-19T12:19:33.912Z,1024.62
2023-05-19T12:20:38.294Z,1024.64
2023-05-19T12:21:42.710Z,1024.64
2023-05-19T12:22:47.123Z,1024.64
2023-05-19T12:23:51.449Z,1024.62
2023-05-19T12:24:55.798Z,1024.59
2023-05-19T12:26:00.292Z,1024.59
2023-05-19T12:27:04.674Z,1024.59
2023-05-19T12:28:09.126Z,1024.63
2023-05-19T12:29:13.459Z,1024.62
2023-05-19T12:30:17.996Z,1024.60
2023-05-19T12:31:22.465Z,1024.58
2023-05-19T12:32:26.829Z,1024.59
2023-05-19T12:33:32.512Z,1024.55
2023-05-19T12:34:35.611Z,1024.58
2023-05-19T12:35:39.877Z,1024.61
2023-05-19T12:36:44.319Z,1024.59
2023-05-19T12:38:02.904Z,1024.55
2023-05-19T12:39:09.037Z,1024.59
2023-05-19T12:40:12.463Z,1024.58
2023-05-19T12:41:16.856Z,1024.55
2023-05-19T12:42:21.284Z,1024.57
2023-05-19T12:43:25.593Z,1024.53
2023-05-19T12:44:33.075Z,1024.50
2023-05-19T12:45:36.627Z,1024.52
2023-05-19T12:46:40.977Z,1024.48
2023-05-19T12:47:45.517Z,1024.54
2023-05-19T12:48:49.780Z,1024.48
2023-05-19T12:49:54.180Z,1024.44
2023-05-19T12:51:04.553Z,1024.46
2023-05-19T12:52:12.749Z,1024.46
2023-05-19T12:53:12.078Z,1024.44
2023-05-19T12:54:16.522Z,1024.43
2023-05-19T12:55:20.813Z,1024.44
2023-05-19T12:56:39.189Z,1024.43
2023-05-19T12:57:42.442Z,1024.45
2023-05-19T12:58:46.936Z,1024.48
2023-05-19T12:59:51.224Z,1024.51
2023-05-19T13:00:55.739Z,1024.46
2023-05-19T13:02:00.001Z,1024.47
2023-05-19T13:03:04.666Z,1024.41